Sumner, Washington
Current Conditions -  °F | °C
As of 7:00 AM on Tuesday 21 Oct 2014 (Local Time) from KTCM Reporting Station
Light Rain Light Rain  
Wind Chill: 54°   Ceiling: 5000
Heat Index: 54°   Visibility: 7mi
Dew Point: 52°   Wind: 13mph
Humidity: 94%   Direction: 190°S
Pressure: 29.88"   Gusts: NA
Location:  47.2°N, 122.23°W
Report Text: KTCM 211400Z AUTO 19011KT 7SM -RA FEW030 OVC050 12/11 A2988 RMK AO2 CIG 032 RWY34 $
Loading
Personal Weather Stations






























Interactive Weather Map
Tropical Storm Tracking
New forecast layout! Learn more

10-Day Weather Forecast

Advertisements
Track Severe Weather on mobile